createdAt,value
2018-06-20T00:00:12.652Z,75.30
2018-06-20T00:05:09.687Z,75.50
2018-06-20T00:07:38.420Z,76.50
2018-06-20T00:10:07.063Z,75.90
2018-06-20T00:12:35.660Z,76.10
2018-06-20T00:15:04.376Z,75.80
2018-06-20T00:17:33.045Z,75.90
2018-06-20T00:20:01.793Z,75.60
2018-06-20T00:22:30.364Z,75.80
2018-06-20T00:24:59.032Z,75.80
2018-06-20T00:27:27.733Z,75.80
2018-06-20T00:29:56.421Z,75.90
2018-06-20T00:32:25.065Z,75.90
2018-06-20T00:34:53.709Z,76.80
2018-06-20T00:37:22.388Z,76.10
2018-06-20T00:39:51.284Z,77.00
2018-06-20T00:42:20.085Z,76.40
2018-06-20T00:44:48.864Z,76.80
2018-06-20T00:47:17.529Z,77.30
2018-06-20T00:49:46.255Z,77.00
2018-06-20T00:52:14.849Z,77.40
2018-06-20T00:54:43.433Z,77.60
2018-06-20T00:57:12.073Z,77.10
2018-06-20T00:59:40.861Z,76.80
2018-06-20T01:02:09.776Z,76.90
2018-06-20T01:04:38.413Z,77.00
2018-06-20T01:07:07.084Z,77.00
2018-06-20T01:09:35.757Z,77.00
2018-06-20T01:12:04.442Z,76.90
2018-06-20T01:14:33.043Z,77.00
2018-06-20T01:17:01.845Z,77.30
2018-06-20T01:19:30.502Z,77.30
2018-06-20T01:21:59.140Z,77.20
2018-06-20T01:24:27.748Z,77.20
2018-06-20T01:26:56.476Z,77.30
2018-06-20T01:29:25.216Z,77.30
2018-06-20T01:31:54.014Z,77.40
2018-06-20T01:34:22.837Z,77.40
2018-06-20T01:36:51.523Z,77.70
2018-06-20T01:39:20.165Z,77.70
2018-06-20T01:41:48.794Z,77.90
2018-06-20T01:44:17.596Z,78.00
2018-06-20T01:46:46.214Z,78.10
2018-06-20T01:49:15.120Z,78.20
2018-06-20T01:51:43.697Z,78.00
2018-06-20T01:54:12.495Z,78.10
2018-06-20T01:56:41.409Z,78.10
2018-06-20T01:59:10.032Z,78.10
2018-06-20T02:01:38.653Z,78.50
2018-06-20T02:04:07.224Z,78.30
2018-06-20T02:06:35.945Z,78.70
2018-06-20T02:09:07.191Z,79.50
2018-06-20T02:11:35.928Z,80.00
2018-06-20T02:14:04.831Z,80.20
2018-06-20T02:16:33.521Z,80.00
2018-06-20T02:19:02.186Z,80.30
2018-06-20T02:21:30.793Z,79.80
2018-06-20T02:23:59.401Z,79.00
2018-06-20T02:26:28.013Z,78.80
2018-06-20T02:31:25.031Z,78.80
2018-06-20T02:33:53.686Z,78.70
2018-06-20T02:36:27.733Z,78.90
2018-06-20T02:38:56.316Z,79.10
2018-06-20T02:41:25.021Z,79.30
2018-06-20T02:43:53.992Z,79.20
2018-06-20T02:46:22.642Z,79.20
2018-06-20T02:48:51.308Z,79.40
2018-06-20T02:51:20.183Z,79.00
2018-06-20T02:53:48.950Z,79.10
2018-06-20T02:56:17.832Z,80.00
2018-06-20T02:58:46.505Z,79.20
2018-06-20T03:01:15.152Z,79.20
2018-06-20T03:03:43.810Z,79.00
2018-06-20T03:06:12.426Z,79.00
2018-06-20T03:08:41.254Z,79.00
2018-06-20T03:11:09.892Z,79.10
2018-06-20T03:13:38.509Z,78.80
2018-06-20T03:16:07.146Z,79.00
2018-06-20T03:18:35.802Z,79.10
2018-06-20T03:21:04.412Z,79.10
2018-06-20T03:23:33.013Z,79.40
2018-06-20T03:26:01.774Z,79.30
2018-06-20T03:28:30.363Z,79.20
2018-06-20T03:30:58.988Z,79.40
2018-06-20T03:35:55.939Z,79.30
2018-06-20T03:38:24.529Z,79.10
2018-06-20T03:40:53.137Z,78.90
2018-06-20T03:43:21.781Z,78.80
2018-06-20T03:45:50.605Z,78.60
2018-06-20T03:48:19.301Z,78.40
2018-06-20T03:50:48.017Z,78.80
2018-06-20T03:53:16.888Z,78.60
2018-06-20T03:55:45.609Z,78.80
2018-06-20T03:58:14.317Z,78.80
2018-06-20T04:00:42.973Z,78.70
2018-06-20T04:03:11.612Z,79.10
2018-06-20T04:05:40.268Z,79.30
2018-06-20T04:08:08.948Z,79.00
2018-06-20T04:10:37.568Z,79.20
2018-06-20T04:15:34.599Z,79.20
2018-06-20T04:18:03.457Z,79.10
2018-06-20T04:20:32.167Z,78.80
2018-06-20T04:23:00.792Z,79.10
2018-06-20T04:25:29.522Z,79.20
2018-06-20T04:27:59.584Z,79.20
2018-06-20T04:30:28.220Z,79.30
2018-06-20T04:32:56.910Z,79.50
2018-06-20T04:35:25.645Z,79.10
2018-06-20T04:37:54.252Z,79.00
2018-06-20T04:40:22.889Z,78.80
2018-06-20T04:42:51.490Z,79.40
2018-06-20T04:45:20.250Z,78.80
2018-06-20T04:47:48.892Z,79.20
2018-06-20T04:50:17.542Z,79.20
2018-06-20T04:52:46.133Z,79.00
2018-06-20T04:55:15.029Z,79.70
2018-06-20T04:57:43.620Z,78.60
2018-06-20T05:00:12.276Z,78.80
2018-06-20T05:02:40.941Z,78.70
2018-06-20T05:05:09.838Z,79.60
2018-06-20T05:07:38.623Z,79.00
2018-06-20T05:10:07.278Z,78.80
2018-06-20T05:12:35.968Z,78.90
2018-06-20T05:15:04.644Z,78.90
2018-06-20T05:17:33.834Z,78.70
2018-06-20T05:20:02.668Z,78.70
2018-06-20T05:22:31.443Z,78.80
2018-06-20T05:25:01.371Z,79.20
2018-06-20T05:27:29.986Z,79.70
2018-06-20T05:29:58.628Z,79.80
2018-06-20T05:32:27.327Z,79.80
2018-06-20T05:34:55.996Z,80.00
2018-06-20T05:37:24.677Z,79.70
2018-06-20T05:39:53.269Z,80.00
2018-06-20T05:42:22.002Z,80.00
2018-06-20T05:44:50.779Z,80.10
2018-06-20T05:47:19.413Z,80.20
2018-06-20T05:49:47.997Z,80.00
2018-06-20T05:52:16.620Z,80.00
2018-06-20T05:54:45.224Z,79.50
2018-06-20T05:57:13.848Z,79.10
2018-06-20T05:59:42.671Z,78.90
2018-06-20T06:02:11.336Z,78.70
2018-06-20T06:04:39.931Z,78.20
2018-06-20T06:07:08.744Z,77.90
2018-06-20T06:09:37.421Z,77.70
2018-06-20T06:12:06.369Z,77.90
2018-06-20T06:14:35.382Z,77.50
2018-06-20T06:17:04.267Z,77.30
2018-06-20T06:19:33.001Z,76.90
2018-06-20T06:22:01.589Z,76.80
2018-06-20T06:24:30.209Z,76.90
2018-06-20T06:26:58.890Z,76.00
2018-06-20T06:29:27.477Z,75.10
2018-06-20T06:31:56.198Z,74.30
2018-06-20T06:34:24.812Z,74.50
2018-06-20T06:36:53.481Z,74.00
2018-06-20T06:39:22.168Z,75.50
2018-06-20T06:41:50.852Z,74.50
2018-06-20T06:44:20.409Z,74.40
2018-06-20T06:46:49.084Z,74.00
2018-06-20T06:49:17.676Z,73.20
2018-06-20T06:51:46.315Z,73.00
2018-06-20T06:54:14.909Z,72.80
2018-06-20T06:56:43.632Z,73.80
2018-06-20T06:59:12.293Z,73.60
2018-06-20T07:01:40.901Z,73.80
2018-06-20T07:04:09.595Z,73.10
2018-06-20T07:06:38.193Z,73.50
2018-06-20T07:09:08.456Z,73.00
2018-06-20T07:11:37.125Z,73.10
2018-06-20T07:14:05.844Z,73.00
2018-06-20T07:16:34.461Z,73.20
2018-06-20T07:19:03.219Z,73.20
2018-06-20T07:21:31.849Z,72.90
2018-06-20T07:24:00.575Z,72.50
2018-06-20T07:26:29.236Z,72.00
2018-06-20T07:28:58.128Z,72.10
2018-06-20T07:31:26.704Z,72.00
2018-06-20T07:33:55.512Z,71.90
2018-06-20T07:36:24.259Z,71.90
2018-06-20T07:38:52.791Z,71.60
2018-06-20T07:41:21.429Z,71.10
2018-06-20T07:43:50.048Z,71.00
2018-06-20T07:46:18.737Z,70.60
2018-06-20T07:48:47.350Z,71.10
2018-06-20T07:51:16.025Z,70.80
2018-06-20T07:53:44.630Z,70.90
2018-06-20T07:56:13.305Z,71.00
2018-06-20T07:58:47.372Z,70.50
2018-06-20T08:01:32.588Z,70.30
2018-06-20T08:04:06.691Z,70.20
2018-06-20T08:06:40.703Z,70.20
2018-06-20T08:09:14.466Z,70.30
2018-06-20T08:11:48.553Z,70.20
2018-06-20T08:14:22.682Z,68.80
2018-06-20T08:16:56.515Z,68.00
2018-06-20T08:19:30.399Z,68.10
2018-06-20T08:21:59.047Z,68.00
2018-06-20T08:24:27.926Z,67.80
2018-06-20T08:26:56.550Z,66.80
2018-06-20T08:34:22.148Z,65.90
2018-06-20T08:36:52.350Z,65.70
2018-06-20T08:39:21.053Z,65.80
2018-06-20T08:41:49.832Z,65.50
2018-06-20T08:44:18.449Z,64.90
2018-06-20T08:46:47.177Z,64.80
2018-06-20T08:49:15.838Z,65.40
2018-06-20T08:51:44.424Z,66.10
2018-06-20T08:54:13.082Z,65.20
2018-06-20T08:56:41.787Z,64.90
2018-06-20T08:59:10.599Z,65.10
2018-06-20T09:04:12.685Z,64.40
2018-06-20T09:06:46.636Z,64.80
2018-06-20T09:09:20.644Z,64.70
2018-06-20T09:11:54.566Z,64.90
2018-06-20T09:14:23.252Z,64.60
2018-06-20T09:16:57.441Z,64.10
2018-06-20T09:19:31.305Z,64.40
2018-06-20T09:22:00.068Z,64.50
2018-06-20T09:24:28.762Z,64.90
2018-06-20T09:26:57.360Z,65.10
2018-06-20T09:29:26.038Z,64.50
2018-06-20T09:31:54.646Z,64.00
2018-06-20T09:34:23.309Z,64.20
2018-06-20T09:36:51.973Z,64.20
2018-06-20T09:39:20.589Z,64.80
2018-06-20T09:41:49.183Z,64.90
2018-06-20T09:44:17.983Z,64.80
2018-06-20T09:46:46.601Z,65.00
2018-06-20T09:49:15.241Z,65.10
2018-06-20T09:51:43.848Z,63.80
2018-06-20T09:54:12.505Z,63.70
2018-06-20T09:56:41.376Z,63.10
2018-06-20T09:59:15.244Z,63.20
2018-06-20T10:01:49.196Z,62.60
2018-06-20T10:04:23.229Z,63.10
2018-06-20T10:06:57.320Z,62.70
2018-06-20T10:09:31.278Z,61.50
2018-06-20T10:12:05.338Z,61.70
2018-06-20T10:14:33.952Z,61.90
2018-06-20T10:17:02.593Z,62.40
2018-06-20T10:19:31.197Z,62.60
2018-06-20T10:21:59.986Z,62.70
2018-06-20T10:24:28.787Z,62.20
2018-06-20T10:26:57.511Z,61.40
2018-06-20T10:29:26.134Z,61.70
2018-06-20T10:31:54.848Z,61.80
2018-06-20T10:34:23.623Z,61.90
2018-06-20T10:36:52.245Z,61.40
2018-06-20T10:39:20.994Z,61.90
2018-06-20T10:41:49.710Z,61.80
2018-06-20T10:44:18.374Z,62.70
2018-06-20T10:46:52.393Z,61.50
2018-06-20T10:49:21.071Z,61.00
2018-06-20T10:51:49.689Z,60.80
2018-06-20T10:54:18.433Z,60.30
2018-06-20T10:56:52.400Z,60.70
2018-06-20T10:59:26.368Z,61.20
2018-06-20T11:02:00.391Z,60.50
2018-06-20T11:04:34.924Z,60.90
2018-06-20T11:07:09.024Z,60.30
2018-06-20T11:09:42.942Z,60.50
2018-06-20T11:12:16.957Z,60.60
2018-06-20T11:14:45.648Z,60.60
2018-06-20T11:17:14.265Z,60.70
2018-06-20T11:19:42.960Z,60.90
2018-06-20T11:22:11.577Z,60.70
2018-06-20T11:24:40.204Z,60.10
2018-06-20T11:27:08.974Z,60.20
2018-06-20T11:29:37.608Z,59.60
2018-06-20T11:32:06.473Z,59.60
2018-06-20T11:34:35.315Z,59.60
2018-06-20T11:37:03.946Z,59.60
2018-06-20T11:39:32.597Z,59.90
2018-06-20T11:42:01.212Z,59.00
2018-06-20T11:44:29.860Z,58.30
2018-06-20T11:47:03.849Z,58.00
2018-06-20T11:49:32.800Z,58.00
2018-06-20T11:52:04.848Z,57.70
2018-06-20T11:54:33.506Z,57.80
2018-06-20T11:57:02.139Z,57.80
2018-06-20T11:59:36.105Z,58.10
2018-06-20T12:02:09.956Z,58.20
2018-06-20T12:04:43.824Z,58.30
2018-06-20T12:07:17.773Z,57.30
2018-06-20T12:09:51.855Z,57.50
2018-06-20T12:12:25.992Z,58.00
2018-06-20T12:14:59.896Z,56.40
2018-06-20T12:17:34.184Z,56.40
2018-06-20T12:20:08.125Z,57.00
2018-06-20T12:22:42.059Z,57.10
2018-06-20T12:25:16.110Z,57.20
2018-06-20T12:27:50.036Z,56.60
2018-06-20T12:30:23.960Z,56.00
2018-06-20T12:32:57.901Z,55.50
2018-06-20T12:35:31.924Z,55.60
2018-06-20T12:38:06.500Z,55.20
2018-06-20T12:40:40.484Z,55.10
2018-06-20T12:43:14.318Z,55.40
2018-06-20T12:45:43.207Z,55.50
2018-06-20T12:48:11.840Z,55.10
2018-06-20T12:50:40.674Z,55.10
2018-06-20T12:53:09.331Z,54.70
2018-06-20T12:55:37.961Z,54.80
2018-06-20T12:58:06.585Z,55.30
2018-06-20T13:00:35.484Z,55.30
2018-06-20T13:03:04.104Z,55.80
2018-06-20T13:05:32.800Z,55.80
2018-06-20T13:08:01.486Z,55.10
2018-06-20T13:10:30.254Z,54.40
2018-06-20T13:12:58.881Z,54.40
2018-06-20T13:17:55.880Z,54.70
2018-06-20T13:20:24.609Z,54.50
2018-06-20T13:22:53.294Z,54.70
2018-06-20T13:25:21.915Z,54.90
2018-06-20T13:27:50.632Z,55.10
2018-06-20T13:30:19.248Z,54.60
2018-06-20T13:32:53.229Z,54.60
2018-06-20T13:35:27.364Z,54.60
2018-06-20T13:38:01.452Z,53.40
2018-06-20T13:40:35.573Z,53.00
2018-06-20T13:43:09.500Z,52.60
2018-06-20T13:45:43.584Z,53.00
2018-06-20T13:48:17.620Z,53.00
2018-06-20T13:50:46.345Z,53.20
2018-06-20T13:53:15.073Z,53.20
2018-06-20T13:55:43.882Z,53.80
2018-06-20T13:58:13.979Z,53.10
2018-06-20T14:00:42.896Z,52.50
2018-06-20T14:03:11.520Z,52.20
2018-06-20T14:05:40.170Z,52.40
2018-06-20T14:08:08.860Z,52.50
2018-06-20T14:10:37.523Z,52.50
2018-06-20T14:13:06.200Z,52.50
2018-06-20T14:15:34.926Z,52.70
2018-06-20T14:18:03.665Z,52.70
2018-06-20T14:20:37.496Z,52.60
2018-06-20T14:23:06.465Z,52.80
2018-06-20T14:25:35.190Z,52.20
2018-06-20T14:28:03.832Z,52.30
2018-06-20T14:30:37.795Z,53.10
2018-06-20T14:33:12.019Z,53.20
2018-06-20T14:35:45.821Z,53.70
2018-06-20T14:38:20.028Z,53.10
2018-06-20T14:40:53.885Z,53.50
2018-06-20T14:43:27.852Z,53.60
2018-06-20T14:46:01.961Z,53.50
2018-06-20T14:48:30.851Z,52.50
2018-06-20T14:50:59.481Z,51.60
2018-06-20T14:53:28.096Z,51.70
2018-06-20T14:55:56.829Z,51.70
2018-06-20T14:58:25.435Z,51.40
2018-06-20T15:00:54.414Z,51.20
2018-06-20T15:03:23.011Z,51.70
2018-06-20T15:05:51.657Z,52.50
2018-06-20T15:08:20.243Z,53.40
2018-06-20T15:10:48.881Z,53.00
2018-06-20T15:13:17.459Z,52.50
2018-06-20T15:15:46.121Z,52.70
2018-06-20T15:18:15.065Z,52.00
2018-06-20T15:20:43.788Z,50.30
2018-06-20T15:23:12.696Z,50.10
2018-06-20T15:25:45.546Z,50.10
2018-06-20T15:28:19.575Z,50.30
2018-06-20T15:30:53.551Z,50.90
2018-06-20T15:33:27.899Z,50.70
2018-06-20T15:36:01.954Z,50.20
2018-06-20T15:38:30.669Z,50.00
2018-06-20T15:40:59.392Z,50.60
2018-06-20T15:43:28.077Z,50.70
2018-06-20T15:45:56.765Z,50.60
2018-06-20T15:48:25.414Z,50.90
2018-06-20T15:50:54.045Z,51.20
2018-06-20T15:53:22.690Z,51.40
2018-06-20T15:55:51.417Z,50.70
2018-06-20T15:58:20.038Z,50.20
2018-06-20T16:00:48.655Z,50.40
2018-06-20T16:03:17.346Z,50.10
2018-06-20T16:05:45.996Z,49.90
2018-06-20T16:08:14.925Z,50.10
2018-06-20T16:10:43.565Z,50.70
2018-06-20T16:15:40.537Z,51.90
2018-06-20T16:18:09.205Z,50.90
2018-06-20T16:20:43.101Z,51.10
2018-06-20T16:23:17.060Z,51.40
2018-06-20T16:25:50.988Z,52.10
2018-06-20T16:28:25.154Z,52.60
2018-06-20T16:30:53.847Z,52.50
2018-06-20T16:33:22.506Z,53.20
2018-06-20T16:35:51.101Z,52.20
2018-06-20T16:38:19.773Z,52.40
2018-06-20T16:40:48.486Z,52.90
2018-06-20T16:43:17.324Z,52.20
2018-06-20T16:45:45.975Z,51.60
2018-06-20T16:48:14.637Z,51.60
2018-06-20T16:50:43.256Z,51.50
2018-06-20T16:53:11.968Z,51.60
2018-06-20T16:55:40.764Z,51.70
2018-06-20T16:58:09.546Z,51.90
2018-06-20T17:00:38.232Z,52.10
2018-06-20T17:03:06.882Z,51.80
2018-06-20T17:05:35.452Z,51.60
2018-06-20T17:08:04.135Z,51.70
2018-06-20T17:13:06.545Z,52.00
2018-06-20T17:15:40.459Z,52.10
2018-06-20T17:18:14.292Z,52.10
2018-06-20T17:20:48.561Z,52.40
2018-06-20T17:23:22.676Z,52.00
2018-06-20T17:25:51.289Z,52.40
2018-06-20T17:28:19.940Z,52.70
2018-06-20T17:30:48.510Z,52.50
2018-06-20T17:33:17.138Z,52.40
2018-06-20T17:35:45.755Z,52.40
2018-06-20T17:38:14.358Z,52.60
2018-06-20T17:40:43.122Z,52.40
2018-06-20T17:43:11.708Z,52.30
2018-06-20T17:45:40.370Z,52.30
2018-06-20T17:48:09.000Z,52.50
2018-06-20T17:50:37.617Z,52.70
2018-06-20T17:53:06.237Z,53.20
2018-06-20T17:55:34.884Z,53.10
2018-06-20T17:58:03.584Z,53.20
2018-06-20T18:00:32.286Z,53.50
2018-06-20T18:03:00.940Z,53.70
2018-06-20T18:05:36.080Z,54.00
2018-06-20T18:08:09.911Z,54.20
2018-06-20T18:10:43.965Z,54.40
2018-06-20T18:13:12.725Z,54.50
2018-06-20T18:15:46.885Z,54.80
2018-06-20T18:18:15.522Z,55.30
2018-06-20T18:20:44.142Z,55.40
2018-06-20T18:23:12.838Z,54.50
2018-06-20T18:25:41.574Z,54.70
2018-06-20T18:28:10.325Z,55.30
2018-06-20T18:30:38.959Z,55.20
2018-06-20T18:33:07.619Z,55.30
2018-06-20T18:35:36.229Z,55.70
2018-06-20T18:38:05.237Z,55.40
2018-06-20T18:40:34.025Z,55.10
2018-06-20T18:43:02.833Z,55.20
2018-06-20T18:45:31.647Z,55.70
2018-06-20T18:48:05.879Z,56.20
2018-06-20T18:50:34.712Z,56.40
2018-06-20T18:53:03.496Z,56.40
2018-06-20T18:55:32.317Z,56.40
2018-06-20T18:58:06.306Z,56.70
2018-06-20T19:00:40.473Z,56.40
2018-06-20T19:03:14.449Z,56.30
2018-06-20T19:05:48.454Z,56.30
2018-06-20T19:08:22.543Z,56.30
2018-06-20T19:10:51.281Z,55.80
2018-06-20T19:13:19.999Z,56.70
2018-06-20T19:15:48.752Z,55.90
2018-06-20T19:18:17.461Z,56.10
2018-06-20T19:20:46.186Z,56.40
2018-06-20T19:23:14.900Z,56.70
2018-06-20T19:25:43.505Z,56.70
2018-06-20T19:28:12.244Z,56.90
2018-06-20T19:30:40.896Z,57.30
2018-06-20T19:33:09.622Z,57.30
2018-06-20T19:35:38.339Z,56.90
2018-06-20T19:38:07.012Z,57.30
2018-06-20T19:40:35.752Z,58.30
2018-06-20T19:43:04.505Z,57.40
2018-06-20T19:45:33.169Z,57.60
2018-06-20T19:48:02.175Z,57.80
2018-06-20T19:50:30.918Z,58.10
2018-06-20T19:52:59.617Z,58.30
2018-06-20T19:55:28.258Z,58.30
2018-06-20T19:57:56.975Z,58.50
2018-06-20T20:00:25.675Z,58.90
2018-06-20T20:02:54.396Z,59.30
2018-06-20T20:05:23.389Z,59.30
2018-06-20T20:07:52.046Z,59.60
2018-06-20T20:10:20.752Z,59.90
2018-06-20T20:12:49.530Z,60.40
2018-06-20T20:15:18.206Z,60.40
2018-06-20T20:17:47.305Z,60.60
2018-06-20T20:20:16.105Z,60.60
2018-06-20T20:22:45.007Z,61.40
2018-06-20T20:25:13.904Z,62.10
2018-06-20T20:27:42.516Z,62.10
2018-06-20T20:30:11.221Z,62.20
2018-06-20T20:32:39.845Z,61.70
2018-06-20T20:35:08.589Z,62.30
2018-06-20T20:37:37.221Z,63.10
2018-06-20T20:40:05.858Z,62.90
2018-06-20T20:42:34.712Z,62.80
2018-06-20T20:45:03.337Z,63.20
2018-06-20T20:47:31.922Z,63.40
2018-06-20T20:50:00.557Z,63.30
2018-06-20T20:52:29.327Z,64.20
2018-06-20T20:54:57.954Z,63.60
2018-06-20T20:57:26.687Z,63.60
2018-06-20T20:59:55.340Z,64.20
2018-06-20T21:02:23.923Z,64.60
2018-06-20T21:04:52.547Z,65.00
2018-06-20T21:07:21.175Z,65.60
2018-06-20T21:09:49.876Z,66.10
2018-06-20T21:12:18.529Z,65.80
2018-06-20T21:14:47.190Z,65.50
2018-06-20T21:17:15.812Z,65.50
2018-06-20T21:19:44.938Z,65.70
2018-06-20T21:22:13.569Z,64.70
2018-06-20T21:24:43.376Z,65.40
2018-06-20T21:27:12.026Z,65.20
2018-06-20T21:29:40.654Z,65.00
2018-06-20T21:32:09.290Z,65.80
2018-06-20T21:34:37.911Z,65.00
2018-06-20T21:37:06.537Z,65.20
2018-06-20T21:39:35.133Z,65.00
2018-06-20T21:42:03.772Z,65.10
2018-06-20T21:44:32.410Z,65.30
2018-06-20T21:47:00.997Z,65.20
2018-06-20T21:49:29.611Z,65.10
2018-06-20T21:51:58.253Z,65.30
2018-06-20T21:54:27.112Z,65.30
2018-06-20T21:56:56.009Z,64.90
2018-06-20T21:59:24.614Z,64.90
2018-06-20T22:01:53.394Z,64.50
2018-06-20T22:04:22.103Z,64.40
2018-06-20T22:06:50.794Z,64.40
2018-06-20T22:09:19.773Z,64.20
2018-06-20T22:11:48.529Z,64.00
2018-06-20T22:14:17.209Z,64.10
2018-06-20T22:16:45.807Z,63.90
2018-06-20T22:19:14.468Z,64.10
2018-06-20T22:21:43.137Z,64.00
2018-06-20T22:24:11.763Z,64.30
2018-06-20T22:26:40.754Z,64.40
2018-06-20T22:29:09.531Z,64.80
2018-06-20T22:31:38.193Z,64.70
2018-06-20T22:34:06.904Z,64.80
2018-06-20T22:36:35.703Z,65.20
2018-06-20T22:39:06.400Z,65.40
2018-06-20T22:41:35.337Z,65.00
2018-06-20T22:44:04.269Z,65.10
2018-06-20T22:46:33.111Z,65.10
2018-06-20T22:49:01.866Z,64.80
2018-06-20T22:51:30.896Z,64.80
2018-06-20T22:53:59.686Z,64.50
2018-06-20T22:56:28.519Z,64.80
2018-06-20T22:58:57.519Z,65.10
2018-06-20T23:01:26.256Z,64.70
2018-06-20T23:03:55.249Z,64.70
2018-06-20T23:06:24.191Z,64.70
2018-06-20T23:08:53.032Z,64.40
2018-06-20T23:11:22.206Z,64.20
2018-06-20T23:13:51.325Z,64.50
2018-06-20T23:16:20.319Z,64.40
2018-06-20T23:18:49.110Z,64.60
2018-06-20T23:21:18.003Z,64.60
2018-06-20T23:23:46.787Z,64.70
2018-06-20T23:26:15.576Z,64.90
2018-06-20T23:28:44.469Z,65.30
2018-06-20T23:31:13.371Z,65.20
2018-06-20T23:33:42.252Z,65.00
2018-06-20T23:36:11.141Z,64.80
2018-06-20T23:38:39.932Z,64.80
2018-06-20T23:41:08.822Z,64.60
2018-06-20T23:43:37.609Z,64.60
2018-06-20T23:46:06.684Z,64.60
2018-06-20T23:48:35.495Z,64.40
2018-06-20T23:51:04.283Z,64.30
2018-06-20T23:53:33.179Z,64.50
2018-06-20T23:56:01.964Z,64.80
2018-06-20T23:58:30.766Z,65.10
